Latest Weather Observations for Laverton

IDV60901

Issued at 10:41 am EDT Friday 27 March 2015 (issued every 10 minutes, with the page automatically refreshed every 10 minutes)

About weather observations | Map of Melbourne area stations | Latest observations for Melbourne area | Other Formats
Station Details ID: 087031 Name: LAVERTON RAAF Lat: -37.86 Lon: 144.76 Height: 20.1 m
Data from the previous 72 hours. | See also: Recent months at Laverton
Date/Time
EDT
Tmp

°C
App
Tmp
°C
Dew
Point
°C
Rel
Hum
%
Delta-T

°C
Wind Press
QNH
hPa
Press
MSL
hPa
Rain
since
9 am
mm
Dir
 
Spd
km/h
Gust
km/h
Spd
kts
Gust
kts
27/10:30am 15.3 9.2 8.3 63 3.5 WSW 30 46 16 25 1023.7 1023.6 0.0
27/10:00am 15.2 8.9 8.9 66 3.2 WSW 32 43 17 23 1023.3 1023.2 0.0
27/09:30am 14.4 8.1 9.0 70 2.7 W 32 44 17 24 1023.0 1022.9 0.0
27/09:00am 13.8 7.9 9.0 73 2.4 W 30 44 16 24 1022.8 1022.7 0.0
27/08:30am 13.0 8.3 9.3 78 1.9 W 24 35 13 19 1022.5 1022.4 0.0
27/08:00am 12.6 7.1 9.1 79 1.8 W 28 41 15 22 1021.9 1021.8 0.0
27/07:30am 12.6 7.9 9.4 81 1.6 W 24 33 13 18 1021.5 1021.4 0.0
27/07:00am 12.9 7.8 9.2 78 1.9 W 26 43 14 23 1021.1 1021.0 0.0
27/06:30am 13.0 7.9 9.3 78 1.9 W 26 37 14 20 1021.0 1020.9 0.0
27/05:30am 13.1 8.1 9.4 78 1.9 W 26 37 14 20 1020.2 1020.1 0.0
27/05:00am 12.6 7.9 9.2 80 1.7 W 24 33 13 18 1020.1 1020.0 0.0
27/04:30am 12.7 8.0 9.2 79 1.8 W 24 33 13 18 1020.0 1019.9 0.0
27/04:00am 12.8 8.5 9.3 79 1.8 W 22 35 12 19 1019.7 1019.6 0.0
27/03:30am 12.9 7.9 9.4 79 1.8 W 26 33 14 18 1019.7 1019.6 0.0
27/03:00am 13.0 8.3 9.3 78 1.9 W 24 33 13 18 1019.7 1019.6 0.0
27/02:30am 13.2 8.1 9.1 76 2.1 W 26 41 14 22 1019.4 1019.3 0.0
27/02:00am 13.8 7.5 9.0 73 2.4 W 32 46 17 25 1019.3 1019.2 0.0
27/01:50am 13.8 8.3 9.0 73 2.4 W 28 46 15 25 1019.3 1019.2 0.0
27/01:30am 13.6 8.5 9.1 74 2.3 WNW 26 35 14 19 1019.1 1019.0 0.0
27/01:00am 13.2 8.5 9.1 76 2.1 WNW 24 33 13 18 1019.2 1019.1 0.0
27/12:30am 13.1 7.9 9.0 76 2.1 W 26 39 14 21 1019.2 1019.1 0.0
 
Date/Time
EDT
Tmp

°C
App
Tmp
°C
Dew
Point
°C
Rel
Hum
%
Delta-T

°C
Wind Press
QNH
hPa
Press
MSL
hPa
Rain
since
9 am
mm
Dir
 
Spd
km/h
Gust
km/h
Spd
kts
Gust
kts
26/11:30pm 13.2 8.4 8.9 75 2.2 WNW 24 32 13 17 1018.9 1018.8 0.0
26/11:00pm 13.2 8.0 8.9 75 2.2 WNW 26 37 14 20 1018.8 1018.7 0.0
26/10:30pm 13.7 8.9 8.7 72 2.5 WNW 24 35 13 19 1018.7 1018.6 0.0
26/10:00pm 13.6 7.6 8.7 72 2.5 WNW 30 43 16 23 1018.6 1018.5 0.0
26/09:30pm 13.9 7.9 8.5 70 2.7 WNW 30 43 16 23 1018.4 1018.3 0.0
26/09:00pm 13.9 8.2 8.5 70 2.7 WNW 28 39 15 21 1018.1 1018.0 0.0
26/08:30pm 13.5 7.4 8.1 70 2.7 WNW 30 41 16 22 1017.7 1017.6 0.0
26/08:00pm 13.6 6.2 8.2 70 2.7 WNW 37 50 20 27 1017.1 1017.0 0.0
26/07:34pm 13.7 5.4 7.9 68 2.9 NW 41 59 22 32 1016.9 1016.8 0.0
26/07:30pm 13.7 4.8 7.7 67 3.0 NW 44 59 24 32 1016.7 1016.6 0.0
26/07:00pm 14.4 5.0 7.2 62 3.5 NW 46 59 25 32 1016.5 1016.4 0.0
26/06:33pm 14.8 5.8 7.1 60 3.8 NW 44 67 24 36 1016.1 1016.0 0.0
26/06:30pm 14.9 6.1 7.2 60 3.8 NW 43 59 23 32 1016.2 1016.1 0.0
26/05:32pm 15.9 6.6 4.9 48 5.2 WNW 43 61 23 33 1016.0 1015.9 0.0
26/05:30pm 15.9 6.4 4.9 48 5.2 WNW 44 61 24 33 1016.0 1015.9 0.0
26/05:00pm 15.7 6.7 4.4 47 5.3 WNW 41 59 22 32 1015.7 1015.6 0.0
26/04:30pm 16.8 7.7 1.7 36 6.7 WNW 39 57 21 31 1015.8 1015.7 0.0
26/04:00pm 17.1 8.3 1.1 34 7.0 WNW 37 56 20 30 1015.9 1015.8 0.0
26/03:32pm 17.7 8.4 0.4 31 7.6 NW 39 57 21 31 1015.8 1015.7 0.0
26/03:30pm 17.8 8.9 0.5 31 7.6 NW 37 52 20 28 1016.0 1015.9 0.0
26/03:19pm 18.0 9.5 0.6 31 7.6 NW 35 54 19 29 1015.9 1015.8 0.0
26/03:00pm 17.5 7.8 0.6 32 7.4 NW 41 56 22 30 1016.2 1016.1 0.0
26/02:35pm 18.1 9.2 0.7 31 7.7 NW 37 59 20 32 1016.5 1016.4 0.0
26/02:30pm 18.0 8.3 0.6 31 7.6 WNW 41 54 22 29 1016.6 1016.5 0.0
26/02:05pm 17.1 8.6 0.7 33 7.2 WNW 35 54 19 29 1017.0 1016.9 0.0
26/02:00pm 17.4 8.5 1.0 33 7.2 NW 37 54 20 29 1017.1 1017.0 0.0
26/01:30pm 17.4 9.6 1.4 34 7.1 WNW 32 46 17 25 1017.1 1017.0 0.0
26/01:00pm 18.0 8.9 1.9 34 7.3 NW 39 54 21 29 1017.5 1017.4 0.0
26/12:45pm 17.2 8.9 2.0 36 6.8 NW 35 57 19 31 1017.5 1017.4 0.0
26/12:30pm 17.0 9.0 1.8 36 6.8 WNW 33 44 18 24 1017.8 1017.7 0.0
26/12:00pm 17.1 9.5 2.7 38 6.5 WNW 32 48 17 26 1017.9 1017.8 0.0
26/11:30am 16.6 9.0 3.0 40 6.2 WNW 32 44 17 24 1018.1 1018.0 0.0
26/11:00am 15.4 7.9 4.5 48 5.1 NW 33 44 18 24 1018.1 1018.0 0.0
26/10:30am 14.4 7.4 4.1 50 4.7 WNW 30 43 16 23 1018.1 1018.0 0.0
26/10:00am 13.9 7.0 4.5 53 4.3 WNW 30 43 16 23 1018.0 1017.9 0.0
26/09:30am 12.9 7.2 5.1 59 3.6 WNW 24 35 13 19 1018.0 1017.9 0.0
26/09:00am 12.0 7.3 5.2 63 3.1 WNW 19 28 10 15 1017.8 1017.7 0.2
26/08:30am 11.0 7.1 5.3 68 2.6 NW 15 22 8 12 1017.5 1017.4 0.2
26/08:00am 9.7 5.7 5.1 73 2.1 NW 15 26 8 14 1017.1 1017.0 0.2
26/07:30am 9.2 4.5 5.0 75 1.9 NW 19 26 10 14 1016.6 1016.5 0.2
26/07:00am 9.0 4.3 5.2 77 1.7 NW 19 22 10 12 1016.2 1016.1 0.2
26/06:30am 8.9 4.0 5.3 78 1.6 NW 20 26 11 14 1015.9 1015.8 0.2
26/06:00am 8.7 4.4 5.4 80 1.5 NW 17 22 9 12 1015.7 1015.6 0.2
26/05:30am 8.5 4.6 5.3 80 1.4 NW 15 19 8 10 1015.8 1015.7 0.2
26/05:00am 8.8 5.3 5.5 80 1.5 NW 13 17 7 9 1015.6 1015.5 0.2
26/04:30am 9.6 5.9 6.1 79 1.6 NW 15 20 8 11 1015.4 1015.3 0.2
26/04:00am 10.0 5.6 6.7 80 1.5 NW 19 24 10 13 1015.2 1015.1 0.2
26/03:30am 10.3 5.2 5.9 74 2.0 NW 22 32 12 17 1015.4 1015.3 0.2
26/03:00am 11.4 6.1 5.1 65 2.9 NW 22 32 12 17 1015.4 1015.3 0.2
26/02:30am 11.8 5.7 5.0 63 3.1 WNW 26 35 14 19 1015.7 1015.6 0.2
26/02:00am 11.6 6.8 5.5 66 2.8 W 20 33 11 18 1016.0 1015.9 0.2
26/01:30am 11.6 5.3 5.5 66 2.8 WSW 28 43 15 23 1016.0 1015.9 0.2
26/01:00am 11.7 4.7 5.8 67 2.7 WSW 32 50 17 27 1015.5 1015.4 0.2
26/12:53am 11.9 4.9 5.8 66 2.8 WSW 32 50 17 27 1015.5 1015.4 0.2
26/12:30am 13.0 5.8 5.9 62 3.3 WSW 33 46 18 25 1015.2 1015.1 0.2
26/12:23am 14.6 9.3 3.1 46 5.2 NNW 20 44 11 24 1015.0 1014.9 0.2
26/12:00am 14.7 10.2 2.3 43 5.5 NNW 15 22 8 12 1014.0 1013.9 0.2
 
Date/Time
EDT
Tmp

°C
App
Tmp
°C
Dew
Point
°C
Rel
Hum
%
Delta-T

°C
Wind Press
QNH
hPa
Press
MSL
hPa
Rain
since
9 am
mm
Dir
 
Spd
km/h
Gust
km/h
Spd
kts
Gust
kts
25/11:30pm 13.3 9.6 2.5 48 4.7 NNE 11 17 6 9 1013.7 1013.6 0.2
25/11:00pm 13.4 9.4 2.6 48 4.8 N 13 19 7 10 1013.9 1013.8 0.2
25/10:30pm 14.2 10.6 2.8 46 5.1 N 11 17 6 9 1014.4 1014.3 0.2
25/10:00pm 13.4 10.4 4.3 54 4.2 N 9 11 5 6 1014.5 1014.4 0.2
25/09:30pm 12.6 10.1 6.6 67 2.9 NNW 9 11 5 6 1014.7 1014.6 0.2
25/09:00pm 13.0 10.2 7.0 67 2.9 W 11 13 6 7 1014.6 1014.5 0.2
25/08:30pm 13.3 11.4 6.9 65 3.1 ESE 6 9 3 5 1014.1 1014.0 0.2
25/08:00pm 15.2 13.6 8.0 62 3.6 ESE 6 7 3 4 1013.7 1013.6 0.2
25/07:30pm 16.3 14.0 7.3 55 4.5 SSE 9 11 5 6 1013.6 1013.5 0.2
25/07:00pm 17.3 15.0 7.6 53 4.9 SSE 9 13 5 7 1013.3 1013.2 0.2
25/06:30pm 17.8 15.2 7.8 52 5.1 SSE 11 17 6 9 1013.0 1012.9 0.2
25/06:00pm 18.4 15.1 8.1 51 5.3 SSE 15 20 8 11 1013.0 1012.9 0.2
25/05:30pm 18.8 15.5 8.2 50 5.5 SSE 15 24 8 13 1012.9 1012.8 0.2
25/05:00pm 18.3 15.1 8.3 52 5.1 SSE 15 20 8 11 1012.9 1012.8 0.2
25/04:30pm 18.9 15.2 8.0 49 5.6 SSE 17 24 9 13 1013.5 1013.4 0.2
25/04:00pm 19.0 14.9 7.8 48 5.7 SSE 19 24 10 13 1013.6 1013.5 0.2
25/03:30pm 19.3 15.7 8.3 49 5.7 SSE 17 22 9 12 1013.8 1013.7 0.2
25/03:00pm 19.0 15.9 7.1 46 6.0 ESE 13 17 7 9 1014.2 1014.1 0.2
25/02:30pm 18.5 15.8 7.3 48 5.7 ESE 11 17 6 9 1014.7 1014.6 0.2
25/02:00pm 18.3 16.0 7.4 49 5.5 E 9 19 5 10 1015.3 1015.2 0.2
25/01:30pm 18.9 16.4 6.4 44 6.2 N 9 20 5 11 1016.1 1016.0 0.2
25/01:00pm 17.1 14.5 6.3 49 5.3 E 9 15 5 8 1016.7 1016.6 0.2
25/12:30pm 17.4 15.3 6.0 47 5.6 SSE 6 11 3 6 1017.2 1017.1 0.2
25/12:00pm 16.4 13.7 5.7 49 5.1 NW 9 15 5 8 1017.8 1017.7 0.2
25/11:30am 16.4 13.7 5.4 48 5.3 ENE 9 15 5 8 1017.8 1017.7 0.0
25/11:00am 15.1 12.6 4.8 50 4.8 N 7 11 4 6 1018.3 1018.2 0.0
25/10:30am 14.6 12.0 4.3 50 4.8 W 7 9 4 5 1018.6 1018.5 0.0
25/10:00am 14.1 10.7 4.1 51 4.6 WNW 11 15 6 8 1019.0 1018.9 0.0
25/09:30am 13.1 9.4 4.3 55 4.0 W 13 17 7 9 1019.0 1018.9 0.0
25/09:00am 12.5 9.1 4.2 57 3.7 W 11 17 6 9 1018.8 1018.7 0.0
25/08:30am 12.4 9.0 4.1 57 3.7 W 11 13 6 7 1018.8 1018.7 0.0
25/08:00am 12.2 8.8 4.2 58 3.6 W 11 15 6 8 1018.8 1018.7 0.0
25/07:30am 12.3 9.0 4.3 58 3.6 WSW 11 15 6 8 1018.8 1018.7 0.0
25/07:00am 12.5 8.8 4.5 58 3.6 WSW 13 19 7 10 1018.6 1018.5 0.0
25/06:30am 12.4 8.7 4.6 59 3.6 WSW 13 19 7 10 1018.3 1018.2 0.0
25/06:00am 12.3 8.7 4.8 60 3.4 WSW 13 17 7 9 1018.3 1018.2 0.0
25/05:30am 12.3 8.3 5.0 61 3.4 W 15 20 8 11 1018.4 1018.3 0.0
25/05:00am 12.5 8.5 5.0 60 3.4 WSW 15 20 8 11 1018.4 1018.3 0.0
25/04:30am 12.5 8.9 5.0 60 3.5 WSW 13 19 7 10 1018.4 1018.3 0.0
25/04:00am 12.7 8.4 5.1 60 3.5 WSW 17 20 9 11 1018.7 1018.6 0.0
25/03:30am 12.8 8.9 5.2 60 3.5 WSW 15 22 8 12 1018.8 1018.7 0.0
25/03:00am 13.1 9.5 5.0 58 3.7 WSW 13 20 7 11 1018.9 1018.8 0.0
25/02:30am 13.3 9.8 5.5 59 3.7 WSW 13 19 7 10 1018.9 1018.8 0.0
25/02:00am 13.5 10.5 5.9 60 3.6 WSW 11 17 6 9 1019.4 1019.3 0.0
25/01:30am 13.6 11.0 6.0 60 3.6 WSW 9 13 5 7 1019.3 1019.2 0.0
25/01:00am 13.5 10.9 5.9 60 3.6 SW 9 11 5 6 1019.1 1019.0 0.0
25/12:30am 13.7 10.3 6.1 60 3.6 SW 13 17 7 9 1019.4 1019.3 0.0
25/12:00am 14.2 11.4 6.8 61 3.6 SSW 11 15 6 8 1019.8 1019.7 0.0
 
Date/Time
EDT
Tmp

°C
App
Tmp
°C
Dew
Point
°C
Rel
Hum
%
Delta-T

°C
Wind Press
QNH
hPa
Press
MSL
hPa
Rain
since
9 am
mm
Dir
 
Spd
km/h
Gust
km/h
Spd
kts
Gust
kts
24/11:30pm 14.3 10.4 6.9 61 3.6 SSW 17 20 9 11 1020.1 1020.0 0.0
24/11:00pm 14.3 9.7 6.6 60 3.7 SSW 20 30 11 16 1020.0 1019.9 0.0
24/10:30pm 14.3 9.9 6.6 60 3.7 SSW 19 24 10 13 1020.3 1020.2 0.0
24/10:00pm 14.4 9.9 7.0 61 3.6 SSW 20 32 11 17 1020.3 1020.2 0.0
24/09:30pm 14.5 8.9 7.1 61 3.6 SSW 26 35 14 19 1020.2 1020.1 0.0
24/09:00pm 14.5 8.8 6.8 60 3.7 S 26 39 14 21 1020.1 1020.0 0.0
24/08:30pm 14.6 9.4 7.2 61 3.6 SSW 24 33 13 18 1019.9 1019.8 0.0
24/08:00pm 14.6 8.9 6.9 60 3.7 SSW 26 35 14 19 1019.8 1019.7 0.0
24/07:30pm 14.7 9.7 6.5 58 4.0 SSW 22 32 12 17 1019.7 1019.6 0.0
24/07:00pm 14.9 9.1 6.2 56 4.2 SSW 26 37 14 20 1019.4 1019.3 0.0
24/06:30pm 15.0 9.1 6.0 55 4.3 SSW 26 35 14 19 1019.1 1019.0 0.0
24/06:00pm 15.2 9.7 5.7 53 4.5 SSW 24 33 13 18 1018.8 1018.7 0.0
24/05:30pm 15.3 9.0 5.8 53 4.6 SSW 28 37 15 20 1018.4 1018.3 0.0
24/05:00pm 15.3 9.1 6.3 55 4.3 SSW 28 39 15 21 1018.3 1018.2 0.0
24/04:30pm 15.5 9.2 5.7 52 4.7 S 28 37 15 20 1018.2 1018.1 0.0
24/04:00pm 15.5 10.0 6.0 53 4.6 SSW 24 35 13 19 1018.1 1018.0 0.0
24/03:30pm 15.8 9.6 6.0 52 4.7 SSW 28 39 15 21 1018.1 1018.0 0.0
24/03:00pm 15.8 9.4 5.4 50 4.9 SSW 28 39 15 21 1018.0 1017.9 0.0
24/02:30pm 15.5 8.9 6.0 53 4.6 SSW 30 37 16 20 1018.2 1018.1 0.0
24/02:00pm 15.6 9.5 6.6 55 4.4 SSW 28 39 15 21 1018.4 1018.3 0.0
24/01:30pm 15.4 8.8 5.9 53 4.6 SSW 30 39 16 21 1018.3 1018.2 0.0
24/01:00pm 15.7 10.0 5.0 49 5.0 SSW 24 35 13 19 1018.5 1018.4 0.0
24/12:30pm 15.3 8.6 5.5 52 4.7 SSW 30 41 16 22 1018.5 1018.4 0.0
24/12:00pm 14.7 8.0 5.8 55 4.2 SSW 30 41 16 22 1018.5 1018.4 0.0
24/11:30am 15.0 9.3 5.0 51 4.7 SSW 24 33 13 18 1018.5 1018.4 0.0
24/11:00am 14.6 8.5 4.9 52 4.5 SSW 26 35 14 19 1018.4 1018.3 0.0

Latest Capital City Observations: Canberra | Sydney | Melbourne | Brisbane | Adelaide | Perth | Hobart | Darwin

Other Formats:

Comma delimited format used in spreadsheet applications
http://www.bom.gov.au/fwo/IDV60901/IDV60901.94865.axf

JavaScript Object Notation format (JSON) in row-major order
http://www.bom.gov.au/fwo/IDV60901/IDV60901.94865.json